Time;durP1;ratioP1;P1;durP2;ratioP2;P2;SDS_P1;SDS_P2;PMS_P1;PMS_P2;Temp;Humidity;BMP_temperature;BMP_pressure;BME280_temperature;BME280_humidity;BME280_pressure;Samples;Min_cycle;Max_cycle;Signal;HPM_P1;HPM_P2
2023/10/21 00:00:10;;;;;;;4.17;2.03;;;16.40;47.60;;;;;;349718;28;852;-55
2023/10/21 00:00:21;;;;;;;4.22;1.70;;;16.40;47.30;;;;;;349530;28;1040;-55
2023/10/21 00:00:32;;;;;;;4.38;1.60;;;16.40;47.20;;;;;;349665;28;925;-55
2023/10/21 00:00:43;;;;;;;4.20;1.43;;;16.40;47.10;;;;;;349664;28;885;-56
2023/10/21 00:00:53;;;;;;;4.50;1.40;;;16.40;47.10;;;;;;349728;28;809;-55
2023/10/21 00:01:05;;;;;;;4.57;1.58;;;16.40;47.10;;;;;;349557;28;1913;-54
2023/10/21 00:01:15;;;;;;;4.40;1.60;;;16.40;47.00;;;;;;349650;28;1134;-55
2023/10/21 00:01:26;;;;;;;4.07;1.50;;;16.40;47.00;;;;;;349618;28;1203;-55
2023/10/21 00:01:37;;;;;;;4.70;1.40;;;16.40;46.90;;;;;;349720;28;1050;-54
2023/10/21 00:01:48;;;;;;;5.13;1.30;;;16.40;46.90;;;;;;349606;28;963;-56
2023/10/21 00:01:58;;;;;;;4.82;1.33;;;16.40;46.90;;;;;;349614;28;1142;-56
2023/10/21 00:02:09;;;;;;;4.18;1.30;;;16.40;47.00;;;;;;349715;28;892;-57
2023/10/21 00:02:20;;;;;;;4.10;1.40;;;16.40;47.10;;;;;;349688;28;995;-54
2023/10/21 00:02:30;;;;;;;4.10;1.40;;;16.40;47.10;;;;;;349607;28;1831;-56
2023/10/21 00:02:41;;;;;;;3.72;1.52;;;16.40;47.00;;;;;;349668;28;1090;-56
2023/10/21 00:02:52;;;;;;;3.92;1.40;;;16.40;47.10;;;;;;349734;28;991;-56
2023/10/21 00:03:03;;;;;;;5.27;1.57;;;16.40;47.20;;;;;;349611;28;1407;-56
2023/10/21 00:03:13;;;;;;;4.85;1.40;;;16.40;47.10;;;;;;349567;28;1079;-55
2023/10/21 00:03:24;;;;;;;4.40;1.35;;;16.40;47.10;;;;;;349620;28;1491;-55
2023/10/21 00:03:35;;;;;;;3.80;1.52;;;16.40;47.10;;;;;;349651;28;1031;-55
2023/10/21 00:03:45;;;;;;;4.70;1.60;;;16.40;47.50;;;;;;349699;28;1042;-55
2023/10/21 00:03:56;;;;;;;4.33;1.67;;;16.40;47.40;;;;;;349645;28;915;-56
2023/10/21 00:04:08;;;;;;;4.05;1.30;;;16.40;47.20;;;;;;349691;28;880;-55
2023/10/21 00:04:18;;;;;;;3.92;1.20;;;16.40;47.00;;;;;;349694;28;952;-55
2023/10/21 00:04:30;;;;;;;4.07;1.30;;;16.40;46.90;;;;;;349649;28;978;-56
2023/10/21 00:04:41;;;;;;;4.85;1.40;;;16.40;47.10;;;;;;349609;28;1114;-55
2023/10/21 00:04:52;;;;;;;4.57;1.50;;;16.40;47.20;;;;;;349649;28;979;-55
2023/10/21 00:05:02;;;;;;;4.20;1.40;;;16.40;47.10;;;;;;349620;28;1082;-55
2023/10/21 00:05:13;;;;;;;3.35;1.30;;;16.40;46.90;;;;;;349671;28;1007;-55
2023/10/21 00:05:25;;;;;;;3.38;1.10;;;16.30;46.80;;;;;;349634;28;1235;-54
2023/10/21 00:05:35;;;;;;;4.60;1.48;;;16.40;46.70;;;;;;349572;28;1115;-55
2023/10/21 00:05:46;;;;;;;4.57;1.50;;;16.30;47.00;;;;;;349636;28;1107;-55
2023/10/21 00:05:57;;;;;;;5.45;1.77;;;16.40;46.90;;;;;;349689;28;881;-56
2023/10/21 00:06:08;;;;;;;5.10;1.50;;;16.30;47.10;;;;;;349577;28;1594;-56
2023/10/21 00:06:18;;;;;;;4.88;1.58;;;16.30;47.30;;;;;;349634;28;1119;-56
2023/10/21 00:06:29;;;;;;;4.88;1.80;;;16.30;47.30;;;;;;349655;28;828;-56
2023/10/21 00:06:40;;;;;;;5.30;2.10;;;16.30;47.40;;;;;;349573;28;1054;-55
2023/10/21 00:06:50;;;;;;;5.47;2.30;;;16.30;47.20;;;;;;349633;28;1378;-54
2023/10/21 00:07:01;;;;;;;5.15;2.03;;;16.30;47.00;;;;;;349700;28;844;-54
2023/10/21 00:07:12;;;;;;;4.22;1.75;;;16.30;46.90;;;;;;349594;28;987;-56
2023/10/21 00:07:23;;;;;;;3.55;1.52;;;16.30;46.90;;;;;;349650;28;1019;-56
2023/10/21 00:07:33;;;;;;;3.38;1.40;;;16.30;47.00;;;;;;349719;28;837;-55
2023/10/21 00:07:44;;;;;;;3.23;1.50;;;16.30;46.90;;;;;;349605;28;1118;-54
2023/10/21 00:07:55;;;;;;;3.83;1.50;;;16.30;46.90;;;;;;349687;28;995;-54
2023/10/21 00:08:06;;;;;;;4.53;1.55;;;16.30;46.90;;;;;;349680;28;1008;-54
2023/10/21 00:08:16;;;;;;;5.78;1.73;;;16.30;46.80;;;;;;349629;28;968;-55
2023/10/21 00:08:28;;;;;;;6.43;1.83;;;16.30;46.90;;;;;;349635;28;980;-55
2023/10/21 00:08:39;;;;;;;6.50;1.77;;;16.30;47.00;;;;;;349698;28;817;-54
2023/10/21 00:08:49;;;;;;;5.65;1.52;;;16.30;47.00;;;;;;349606;28;1060;-56
2023/10/21 00:09:00;;;;;;;4.90;1.47;;;16.30;46.80;;;;;;349698;28;1115;-55
2023/10/21 00:09:11;;;;;;;3.83;1.38;;;16.30;46.80;;;;;;349681;28;1094;-54
2023/10/21 00:09:21;;;;;;;4.32;1.48;;;16.30;46.80;;;;;;349638;28;1094;-56
2023/10/21 00:09:32;;;;;;;5.38;1.50;;;16.30;46.70;;;;;;349625;28;882;-54
2023/10/21 00:09:43;;;;;;;5.93;1.60;;;16.20;46.90;;;;;;349677;28;1103;-55
2023/10/21 00:09:53;;;;;;;5.57;1.50;;;16.20;47.10;;;;;;349739;28;821;-55
2023/10/21 00:10:06;;;;;;;4.30;1.40;;;16.30;47.20;;;;;;349692;28;884;-55
2023/10/21 00:10:18;;;;;;;4.45;1.35;;;16.30;47.00;;;;;;349572;28;1065;-55
2023/10/21 00:10:28;;;;;;;4.55;1.40;;;16.30;47.00;;;;;;349651;28;1003;-55
2023/10/21 00:10:39;;;;;;;4.53;1.35;;;16.20;46.90;;;;;;349674;28;995;-54
2023/10/21 00:11:01;;;;;;;3.83;1.48;;;16.30;46.90;;;;;;349604;28;1412;-56
2023/10/21 00:11:12;;;;;;;4.30;1.65;;;16.30;46.80;;;;;;349670;28;928;-55
2023/10/21 00:11:23;;;;;;;4.40;1.60;;;16.30;46.80;;;;;;349637;28;1007;-55
2023/10/21 00:11:33;;;;;;;3.87;1.53;;;16.30;46.70;;;;;;349717;28;837;-55
2023/10/21 00:11:44;;;;;;;3.92;1.45;;;16.30;46.60;;;;;;349600;28;1099;-54
2023/10/21 00:11:55;;;;;;;3.63;1.48;;;16.30;46.60;;;;;;349677;28;999;-56
2023/10/21 00:12:09;;;;;;;3.00;1.35;;;16.30;46.70;;;;;;349666;28;900;-55
2023/10/21 00:12:20;;;;;;;3.54;1.34;;;16.30;46.80;;;;;;349614;28;1028;-55
2023/10/21 00:12:30;;;;;;;3.97;1.40;;;16.30;46.70;;;;;;349398;28;1055;-56
2023/10/21 00:12:44;;;;;;;4.17;1.40;;;16.30;46.70;;;;;;349485;28;1146;-56
2023/10/21 00:12:55;;;;;;;4.35;1.60;;;16.40;46.80;;;;;;349496;28;1027;-55
2023/10/21 00:13:06;;;;;;;4.47;1.55;;;16.40;46.80;;;;;;349595;28;1376;-55
2023/10/21 00:13:16;;;;;;;5.03;2.05;;;16.40;47.10;;;;;;349593;28;905;-56
2023/10/21 00:13:27;;;;;;;5.00;2.00;;;16.40;47.20;;;;;;349686;28;1181;-55
2023/10/21 00:13:39;;;;;;;5.20;1.90;;;16.40;47.10;;;;;;349621;28;1592;-55
2023/10/21 00:13:49;;;;;;;4.78;1.67;;;16.30;47.00;;;;;;349666;28;1094;-55
2023/10/21 00:14:00;;;;;;;4.13;1.60;;;16.40;46.90;;;;;;349557;28;1163;-55
2023/10/21 00:14:11;;;;;;;4.22;1.60;;;16.40;46.90;;;;;;349611;28;1539;-55
2023/10/21 00:14:21;;;;;;;4.53;1.60;;;16.40;46.90;;;;;;349659;28;995;-55
2023/10/21 00:14:34;;;;;;;4.40;1.60;;;16.40;47.00;;;;;;349645;28;1170;-55
2023/10/21 00:14:44;;;;;;;4.43;1.55;;;16.40;47.10;;;;;;349643;28;1109;-56
2023/10/21 00:14:55;;;;;;;5.18;1.60;;;16.40;47.10;;;;;;349537;28;1191;-56
2023/10/21 00:15:09;;;;;;;4.88;1.60;;;16.40;47.10;;;;;;349647;28;1091;-54
2023/10/21 00:15:20;;;;;;;4.43;1.60;;;16.40;47.70;;;;;;349649;28;1430;-54
2023/10/21 00:15:31;;;;;;;3.80;1.60;;;16.40;47.70;;;;;;349617;28;1666;-56
2023/10/21 00:15:41;;;;;;;3.80;1.57;;;16.40;47.70;;;;;;349600;28;1090;-54
2023/10/21 00:15:52;;;;;;;3.67;1.60;;;16.40;47.50;;;;;;349675;28;944;-55
2023/10/21 00:16:03;;;;;;;4.35;1.70;;;16.40;47.70;;;;;;349671;28;1011;-55
2023/10/21 00:16:15;;;;;;;4.57;1.90;;;16.40;47.70;;;;;;349609;28;1118;-55
2023/10/21 00:16:26;;;;;;;5.50;2.42;;;16.40;47.50;;;;;;349604;28;1608;-55
2023/10/21 00:16:37;;;;;;;5.47;2.53;;;16.40;47.40;;;;;;349564;28;1030;-56
2023/10/21 00:16:49;;;;;;;5.05;2.15;;;16.40;47.30;;;;;;349722;28;932;-55
2023/10/21 00:17:00;;;;;;;4.20;1.52;;;16.40;47.30;;;;;;349674;28;904;-56
2023/10/21 00:17:11;;;;;;;4.60;1.35;;;16.40;47.70;;;;;;349674;28;1019;-55
2023/10/21 00:17:22;;;;;;;4.68;1.48;;;16.40;47.80;;;;;;349624;28;1031;-56
2023/10/21 00:17:33;;;;;;;4.43;1.33;;;16.40;47.70;;;;;;349579;28;1079;-56
2023/10/21 00:17:44;;;;;;;4.90;1.50;;;16.40;47.60;;;;;;349612;28;1559;-56
2023/10/21 00:17:54;;;;;;;4.20;1.30;;;16.40;47.80;;;;;;349638;28;1153;-55
2023/10/21 00:18:05;;;;;;;4.97;1.40;;;16.40;48.20;;;;;;349723;28;841;-55
2023/10/21 00:18:16;;;;;;;4.70;1.52;;;16.40;48.80;;;;;;349604;28;1525;-55
2023/10/21 00:18:26;;;;;;;5.03;1.63;;;16.40;48.30;;;;;;349563;28;991;-54
2023/10/21 00:18:37;;;;;;;4.03;1.50;;;16.40;47.80;;;;;;349652;28;1153;-55
2023/10/21 00:18:48;;;;;;;3.80;1.30;;;16.40;47.50;;;;;;349686;28;1026;-55
2023/10/21 00:18:58;;;;;;;4.32;1.48;;;16.40;47.40;;;;;;349654;28;1150;-55
2023/10/21 00:19:10;;;;;;;4.05;1.50;;;16.40;47.40;;;;;;349682;28;829;-55
2023/10/21 00:19:21;;;;;;;3.97;1.45;;;16.40;47.20;;;;;;349549;28;1070;-55
2023/10/21 00:19:34;;;;;;;4.35;1.35;;;16.30;47.40;;;;;;349650;28;1285;-55
2023/10/21 00:19:44;;;;;;;4.47;1.42;;;16.30;47.50;;;;;;349625;28;1130;-56
2023/10/21 00:19:55;;;;;;;4.03;1.48;;;16.30;47.60;;;;;;349702;28;861;-55
2023/10/21 00:20:06;;;;;;;3.55;1.33;;;16.30;47.60;;;;;;349611;28;965;-55
2023/10/21 00:20:17;;;;;;;3.97;1.30;;;16.30;47.60;;;;;;349639;28;1007;-56
2023/10/21 00:20:28;;;;;;;5.45;1.48;;;16.30;47.60;;;;;;349679;28;1062;-54
2023/10/21 00:20:38;;;;;;;5.83;1.57;;;16.30;47.80;;;;;;349661;28;969;-54
2023/10/21 00:20:50;;;;;;;4.72;1.58;;;16.30;48.40;;;;;;349668;28;845;-55
2023/10/21 00:21:01;;;;;;;4.28;1.80;;;16.30;48.40;;;;;;349598;28;971;-55
2023/10/21 00:21:12;;;;;;;4.72;1.90;;;16.30;48.30;;;;;;349586;28;2008;-55
2023/10/21 00:21:23;;;;;;;6.03;2.00;;;16.30;48.30;;;;;;349626;28;1024;-54
2023/10/21 00:21:34;;;;;;;5.05;1.80;;;16.30;48.30;;;;;;349659;28;1661;-55
2023/10/21 00:21:44;;;;;;;5.32;1.70;;;16.30;48.50;;;;;;349665;28;1497;-55
2023/10/21 00:21:55;;;;;;;5.17;1.70;;;16.30;48.20;;;;;;349630;28;1033;-55
2023/10/21 00:22:06;;;;;;;5.60;1.63;;;16.30;48.10;;;;;;349631;28;964;-55
2023/10/21 00:22:17;;;;;;;5.03;1.55;;;16.30;48.20;;;;;;349614;28;1395;-55
2023/10/21 00:22:27;;;;;;;4.65;1.40;;;16.30;48.30;;;;;;349679;28;951;-54
2023/10/21 00:22:38;;;;;;;4.63;1.63;;;16.40;48.20;;;;;;349646;28;1011;-56
2023/10/21 00:22:49;;;;;;;4.80;1.85;;;16.30;48.10;;;;;;349598;28;976;-56
2023/10/21 00:22:59;;;;;;;5.57;2.00;;;16.30;48.10;;;;;;349676;28;991;-56
2023/10/21 00:23:10;;;;;;;5.78;1.95;;;16.40;47.90;;;;;;349627;28;1035;-56
2023/10/21 00:23:22;;;;;;;5.40;1.80;;;16.30;48.00;;;;;;349621;28;1145;-56
2023/10/21 00:23:32;;;;;;;4.38;1.63;;;16.40;48.20;;;;;;349650;28;939;-56
2023/10/21 00:23:43;;;;;;;3.95;1.58;;;16.30;48.30;;;;;;349637;28;1138;-55
2023/10/21 00:23:54;;;;;;;3.47;1.43;;;16.30;48.30;;;;;;349660;28;1055;-56
2023/10/21 00:24:05;;;;;;;3.80;1.38;;;16.30;47.90;;;;;;349692;28;956;-56
2023/10/21 00:24:15;;;;;;;4.35;1.40;;;16.40;47.90;;;;;;349581;28;1047;-56
2023/10/21 00:24:26;;;;;;;4.57;1.48;;;16.30;47.60;;;;;;349637;28;842;-56
2023/10/21 00:24:37;;;;;;;3.92;1.40;;;16.30;47.50;;;;;;349566;28;1589;-56
2023/10/21 00:24:48;;;;;;;3.40;1.47;;;16.40;47.50;;;;;;349659;28;972;-56
2023/10/21 00:25:00;;;;;;;4.40;1.60;;;16.30;47.50;;;;;;349658;28;1094;-56
2023/10/21 00:25:11;;;;;;;5.10;1.63;;;16.40;47.50;;;;;;349590;28;886;-56
2023/10/21 00:25:21;;;;;;;5.07;1.60;;;16.40;47.60;;;;;;349561;28;1479;-56
2023/10/21 00:25:32;;;;;;;4.15;1.45;;;16.40;47.60;;;;;;349622;28;1250;-55
2023/10/21 00:25:43;;;;;;;4.30;1.52;;;16.30;47.50;;;;;;349633;28;887;-56
2023/10/21 00:25:53;;;;;;;5.37;1.53;;;16.40;47.50;;;;;;349686;28;996;-55
2023/10/21 00:26:04;;;;;;;5.63;1.63;;;16.40;47.70;;;;;;349651;28;1020;-55
2023/10/21 00:26:16;;;;;;;4.68;1.50;;;16.40;47.70;;;;;;349586;28;1792;-55
2023/10/21 00:26:27;;;;;;;4.05;1.52;;;16.40;47.50;;;;;;349624;28;935;-56
2023/10/21 00:26:47;;;;;;;3.97;1.45;;;16.40;47.40;;;;;;349671;28;1003;-55
2023/10/21 00:26:57;;;;;;;5.25;1.55;;;16.40;47.50;;;;;;349474;28;1252;-55
2023/10/21 00:27:08;;;;;;;5.30;1.70;;;16.40;47.50;;;;;;349669;28;1023;-55
2023/10/21 00:27:19;;;;;;;4.50;1.70;;;16.40;47.30;;;;;;349562;28;1623;-55
2023/10/21 00:27:30;;;;;;;4.43;1.63;;;16.40;47.30;;;;;;349592;28;944;-56
2023/10/21 00:27:41;;;;;;;5.07;1.50;;;16.40;47.60;;;;;;349675;28;1768;-55
2023/10/21 00:27:51;;;;;;;5.45;1.45;;;16.40;47.50;;;;;;349701;28;813;-56
2023/10/21 00:28:03;;;;;;;4.30;1.33;;;16.40;47.40;;;;;;349598;28;899;-56
2023/10/21 00:28:14;;;;;;;3.92;1.35;;;16.40;47.50;;;;;;349644;28;917;-56
2023/10/21 00:28:25;;;;;;;3.72;1.38;;;16.40;47.50;;;;;;349546;28;1434;-55
2023/10/21 00:28:36;;;;;;;5.27;1.60;;;16.40;47.40;;;;;;349620;28;914;-55
2023/10/21 00:28:46;;;;;;;5.25;1.63;;;16.40;47.40;;;;;;349670;28;988;-57
2023/10/21 00:28:58;;;;;;;4.90;1.58;;;16.40;47.40;;;;;;349592;28;1293;-56
2023/10/21 00:29:08;;;;;;;3.38;1.40;;;16.40;47.30;;;;;;349628;28;1028;-56
2023/10/21 00:29:19;;;;;;;3.75;1.33;;;16.40;47.50;;;;;;349569;28;1931;-55
2023/10/21 00:29:30;;;;;;;4.20;1.60;;;16.30;47.80;;;;;;349653;28;995;-55
2023/10/21 00:29:41;;;;;;;4.85;1.85;;;16.40;47.60;;;;;;349685;28;889;-57
2023/10/21 00:29:51;;;;;;;4.37;1.87;;;16.40;47.60;;;;;;349661;28;1292;-56
2023/10/21 00:30:03;;;;;;;4.53;1.75;;;16.40;47.40;;;;;;349552;28;1852;-54
2023/10/21 00:30:13;;;;;;;4.57;1.70;;;16.40;47.40;;;;;;349606;28;1213;-56
2023/10/21 00:30:24;;;;;;;4.10;1.65;;;16.40;47.50;;;;;;349655;28;923;-55
2023/10/21 00:30:35;;;;;;;4.70;1.77;;;16.40;47.50;;;;;;349647;28;987;-55
2023/10/21 00:30:47;;;;;;;4.38;1.70;;;16.40;47.50;;;;;;349584;28;955;-55
2023/10/21 00:31:02;;;;;;;5.60;1.80;;;16.30;47.30;;;;;;349580;28;1240;-54
2023/10/21 00:31:13;;;;;;;6.32;1.70;;;16.40;47.50;;;;;;349673;28;860;-56
2023/10/21 00:31:24;;;;;;;5.40;1.60;;;16.30;47.50;;;;;;349587;28;1003;-56
2023/10/21 00:31:34;;;;;;;4.63;1.73;;;16.40;47.30;;;;;;349645;28;1760;-55
2023/10/21 00:31:45;;;;;;;3.85;1.65;;;16.30;47.30;;;;;;349662;28;984;-57
2023/10/21 00:31:56;;;;;;;4.13;1.60;;;16.30;47.30;;;;;;349637;28;1169;-55
2023/10/21 00:32:07;;;;;;;4.63;1.67;;;16.30;47.20;;;;;;349576;28;1035;-55
2023/10/21 00:32:17;;;;;;;5.90;1.70;;;16.30;47.20;;;;;;349691;28;844;-55
2023/10/21 00:32:28;;;;;;;6.03;1.90;;;16.30;47.10;;;;;;349632;28;972;-55
2023/10/21 00:32:39;;;;;;;5.43;1.73;;;16.30;47.10;;;;;;349633;28;1114;-55
2023/10/21 00:32:49;;;;;;;4.20;1.67;;;16.30;47.10;;;;;;349611;28;1009;-56
2023/10/21 00:33:00;;;;;;;4.30;1.70;;;16.30;47.20;;;;;;349711;28;865;-54
2023/10/21 00:33:12;;;;;;;5.15;1.90;;;16.30;47.30;;;;;;349640;28;960;-56
2023/10/21 00:33:23;;;;;;;4.68;1.92;;;16.30;47.40;;;;;;349658;28;955;-54
2023/10/21 00:33:33;;;;;;;5.27;1.70;;;16.30;47.40;;;;;;349578;28;964;-55
2023/10/21 00:33:44;;;;;;;4.60;1.40;;;16.30;47.40;;;;;;349629;28;1174;-55
2023/10/21 00:33:55;;;;;;;4.72;1.42;;;16.30;47.40;;;;;;349657;28;868;-55
2023/10/21 00:34:05;;;;;;;4.65;1.50;;;16.30;47.40;;;;;;349636;28;1099;-55
2023/10/21 00:34:17;;;;;;;4.83;1.60;;;16.30;47.40;;;;;;349631;28;1316;-56
2023/10/21 00:34:27;;;;;;;5.22;1.75;;;16.30;47.50;;;;;;349654;28;1063;-55
2023/10/21 00:34:38;;;;;;;5.38;1.85;;;16.30;47.40;;;;;;349618;28;1091;-57
2023/10/21 00:34:49;;;;;;;4.97;1.70;;;16.30;47.40;;;;;;349498;28;1295;-56
2023/10/21 00:35:00;;;;;;;5.22;1.60;;;16.30;47.40;;;;;;349591;28;885;-55
2023/10/21 00:35:10;;;;;;;4.55;1.55;;;16.30;47.40;;;;;;349499;28;1717;-57
2023/10/21 00:35:22;;;;;;;4.27;1.40;;;16.30;47.50;;;;;;349666;28;789;-55
2023/10/21 00:35:33;;;;;;;3.67;1.30;;;16.30;47.50;;;;;;349601;28;1940;-55
2023/10/21 00:35:47;;;;;;;4.22;1.50;;;16.30;47.80;;;;;;349536;28;1561;-56
2023/10/21 00:35:58;;;;;;;4.32;1.52;;;16.30;47.80;;;;;;349612;28;1122;-55
2023/10/21 00:36:09;;;;;;;3.83;1.50;;;16.30;48.10;;;;;;349651;28;1062;-57
2023/10/21 00:36:19;;;;;;;3.97;1.50;;;16.30;48.20;;;;;;349706;28;987;-56
2023/10/21 00:36:30;;;;;;;4.07;1.50;;;16.30;48.20;;;;;;349554;28;975;-55
2023/10/21 00:36:41;;;;;;;3.97;1.40;;;16.30;48.20;;;;;;349624;28;1003;-57
2023/10/21 00:36:51;;;;;;;4.28;1.67;;;16.30;48.20;;;;;;349653;28;1162;-55
2023/10/21 00:37:03;;;;;;;4.22;1.73;;;16.30;48.20;;;;;;349697;28;900;-55
2023/10/21 00:37:13;;;;;;;3.67;1.65;;;16.30;48.30;;;;;;349559;28;1105;-55
2023/10/21 00:37:24;;;;;;;3.72;1.67;;;16.30;48.50;;;;;;349612;28;1050;-55
2023/10/21 00:37:35;;;;;;;4.35;1.63;;;16.30;48.50;;;;;;349687;28;1039;-55
2023/10/21 00:37:45;;;;;;;5.23;1.67;;;16.30;48.40;;;;;;349610;28;1166;-55
2023/10/21 00:37:56;;;;;;;4.80;1.67;;;16.30;48.30;;;;;;349581;28;917;-56
2023/10/21 00:38:07;;;;;;;4.32;1.77;;;16.30;48.50;;;;;;349624;28;1085;-55
2023/10/21 00:38:18;;;;;;;3.55;1.70;;;16.30;48.40;;;;;;349649;28;967;-55
2023/10/21 00:38:28;;;;;;;3.47;1.53;;;16.30;48.10;;;;;;349654;28;952;-55
2023/10/21 00:38:39;;;;;;;3.33;1.40;;;16.20;48.00;;;;;;349576;28;1039;-55
2023/10/21 00:38:50;;;;;;;3.78;1.40;;;16.20;47.80;;;;;;349683;28;963;-55
2023/10/21 00:39:01;;;;;;;3.73;1.30;;;16.30;47.90;;;;;;349571;28;1366;-56
2023/10/21 00:39:12;;;;;;;3.90;1.30;;;16.30;47.80;;;;;;349587;28;1111;-55
2023/10/21 00:39:23;;;;;;;4.82;1.38;;;16.30;47.70;;;;;;349513;28;1464;-56
2023/10/21 00:39:37;;;;;;;4.97;1.50;;;16.30;47.70;;;;;;349620;28;1043;-55
2023/10/21 00:39:48;;;;;;;4.38;1.55;;;16.30;47.80;;;;;;349614;28;1814;-55
2023/10/21 00:39:59;;;;;;;3.38;1.50;;;16.30;47.80;;;;;;349609;28;931;-55
2023/10/21 00:40:10;;;;;;;4.50;1.63;;;16.30;47.70;;;;;;349659;28;817;-56
2023/10/21 00:40:21;;;;;;;4.97;1.83;;;16.30;47.90;;;;;;349642;28;991;-56
2023/10/21 00:40:31;;;;;;;5.13;1.98;;;16.30;48.20;;;;;;349563;28;1146;-56
2023/10/21 00:40:50;;;;;;;5.45;1.95;;;16.30;48.00;;;;;;349642;28;975;-57
2023/10/21 00:41:01;;;;;;;5.90;1.98;;;16.30;48.30;;;;;;349548;28;1058;-55
2023/10/21 00:41:12;;;;;;;5.05;1.90;;;16.30;48.50;;;;;;349587;28;1980;-55
2023/10/21 00:41:24;;;;;;;4.10;1.80;;;16.30;48.60;;;;;;349640;28;1090;-56
2023/10/21 00:41:34;;;;;;;3.60;1.65;;;16.30;48.40;;;;;;349517;28;1201;-55
2023/10/21 00:41:45;;;;;;;5.22;1.88;;;16.30;48.10;;;;;;349651;28;1171;-55
2023/10/21 00:41:56;;;;;;;5.60;1.80;;;16.30;47.90;;;;;;349630;28;1079;-55
2023/10/21 00:42:07;;;;;;;4.80;1.80;;;16.20;47.90;;;;;;349571;28;1005;-56
2023/10/21 00:42:17;;;;;;;4.13;1.63;;;16.30;47.80;;;;;;349625;28;1410;-55
2023/10/21 00:42:28;;;;;;;3.88;1.60;;;16.20;47.80;;;;;;349599;28;1126;-56
2023/10/21 00:42:39;;;;;;;4.05;1.70;;;16.30;47.80;;;;;;349626;28;1126;-57
2023/10/21 00:42:50;;;;;;;4.13;1.77;;;16.30;47.80;;;;;;349596;28;1814;-55
2023/10/21 00:43:00;;;;;;;4.80;1.80;;;16.20;47.80;;;;;;349606;28;1209;-55
2023/10/21 00:43:11;;;;;;;3.85;1.63;;;16.30;47.80;;;;;;349622;28;888;-55
2023/10/21 00:43:40;;;;;;;3.85;1.55;;;16.30;47.70;;;;;;349603;28;1403;-55
2023/10/21 00:43:51;;;;;;;3.25;1.50;;;16.20;47.90;;;;;;349584;28;909;-54
2023/10/21 00:44:02;;;;;;;3.88;1.65;;;16.20;47.90;;;;;;349729;28;813;-54
2023/10/21 00:44:13;;;;;;;4.72;1.70;;;16.20;47.90;;;;;;349573;28;1157;-55
2023/10/21 00:44:23;;;;;;;5.53;1.60;;;16.20;47.80;;;;;;349643;28;980;-54
2023/10/21 00:44:34;;;;;;;5.27;1.50;;;16.20;47.80;;;;;;349591;28;960;-54
2023/10/21 00:44:45;;;;;;;5.32;1.40;;;16.20;47.80;;;;;;349640;28;889;-56
2023/10/21 00:44:56;;;;;;;5.13;1.40;;;16.20;47.90;;;;;;349667;28;1008;-55
2023/10/21 00:45:07;;;;;;;4.63;1.40;;;16.20;48.10;;;;;;349642;28;829;-55
2023/10/21 00:45:17;;;;;;;4.50;1.50;;;16.20;48.10;;;;;;349545;28;1119;-54
2023/10/21 00:45:28;;;;;;;4.40;1.50;;;16.20;47.90;;;;;;349634;28;964;-54
2023/10/21 00:45:39;;;;;;;4.55;1.50;;;16.20;47.80;;;;;;349645;28;951;-56
2023/10/21 00:45:50;;;;;;;4.13;1.50;;;16.20;47.90;;;;;;349593;28;1199;-55
2023/10/21 00:46:18;;;;;;;4.20;1.40;;;16.20;47.90;;;;;;349595;28;1247;-55
2023/10/21 00:46:29;;;;;;;4.80;1.45;;;16.20;47.90;;;;;;349531;28;1127;-55
2023/10/21 00:46:44;;;;;;;3.53;1.40;;;16.20;47.90;;;;;;349622;28;1955;-55
2023/10/21 00:46:55;;;;;;;4.38;1.42;;;16.20;47.80;;;;;;349572;28;1024;-55
2023/10/21 00:47:05;;;;;;;5.45;1.48;;;16.20;47.80;;;;;;349676;28;1043;-54
2023/10/21 00:47:16;;;;;;;4.97;1.50;;;16.20;47.80;;;;;;349680;28;821;-55
2023/10/21 00:47:27;;;;;;;4.63;1.35;;;16.20;47.90;;;;;;349637;28;1047;-54
2023/10/21 00:47:38;;;;;;;4.03;1.27;;;16.20;47.90;;;;;;349538;28;1280;-55
2023/10/21 00:47:50;;;;;;;4.32;1.23;;;16.20;48.00;;;;;;349686;28;926;-55
2023/10/21 00:48:00;;;;;;;5.22;1.40;;;16.20;48.00;;;;;;349632;28;1193;-55
2023/10/21 00:48:11;;;;;;;4.90;1.50;;;16.20;48.00;;;;;;349653;28;1014;-55
2023/10/21 00:48:22;;;;;;;4.60;1.50;;;16.20;48.20;;;;;;349549;28;1314;-55
2023/10/21 00:48:33;;;;;;;4.65;1.50;;;16.20;48.30;;;;;;349639;28;1070;-55
2023/10/21 00:48:45;;;;;;;4.75;1.27;;;16.20;48.20;;;;;;349643;28;991;-55
2023/10/21 00:48:56;;;;;;;5.65;1.40;;;16.20;48.10;;;;;;349643;28;995;-55
2023/10/21 00:49:07;;;;;;;6.18;1.42;;;16.20;48.00;;;;;;349537;28;1022;-54
2023/10/21 00:49:18;;;;;;;5.90;1.43;;;16.20;48.10;;;;;;349654;28;1075;-55
2023/10/21 00:49:30;;;;;;;4.93;1.40;;;16.20;48.10;;;;;;349551;28;1616;-55
2023/10/21 00:49:42;;;;;;;4.32;1.40;;;16.20;48.10;;;;;;349600;28;1134;-55
2023/10/21 00:49:53;;;;;;;4.63;1.50;;;16.20;48.20;;;;;;349563;28;1051;-56
2023/10/21 00:50:04;;;;;;;5.40;1.65;;;16.20;48.20;;;;;;349664;28;1023;-56
2023/10/21 00:50:15;;;;;;;5.15;1.60;;;16.20;48.20;;;;;;349667;28;1079;-55
2023/10/21 00:50:26;;;;;;;4.32;1.48;;;16.20;48.20;;;;;;349671;28;825;-56
2023/10/21 00:50:37;;;;;;;4.83;1.67;;;16.20;48.30;;;;;;349547;28;1015;-55
2023/10/21 00:50:47;;;;;;;4.97;1.70;;;16.20;48.30;;;;;;349574;28;1401;-55
2023/10/21 00:50:59;;;;;;;5.47;1.85;;;16.20;48.30;;;;;;349618;28;813;-55
2023/10/21 00:51:10;;;;;;;4.43;1.73;;;16.20;48.30;;;;;;349628;28;907;-54
2023/10/21 00:51:21;;;;;;;4.45;1.65;;;16.20;48.30;;;;;;349554;28;1100;-55
2023/10/21 00:51:33;;;;;;;4.93;1.67;;;16.20;48.20;;;;;;349579;28;1114;-55
2023/10/21 00:51:45;;;;;;;6.00;1.80;;;16.20;48.40;;;;;;349606;28;1115;-55
2023/10/21 00:51:57;;;;;;;5.40;1.83;;;16.20;48.50;;;;;;349571;28;1650;-56
2023/10/21 00:52:10;;;;;;;5.43;1.73;;;16.20;48.40;;;;;;349538;28;1798;-55
2023/10/21 00:52:20;;;;;;;5.18;1.80;;;16.20;48.50;;;;;;349583;28;1519;-56
2023/10/21 00:52:34;;;;;;;4.40;1.50;;;16.20;48.60;;;;;;349597;28;1078;-54
2023/10/21 00:52:46;;;;;;;4.20;1.42;;;16.20;48.50;;;;;;349622;28;845;-55
2023/10/21 00:52:57;;;;;;;3.70;1.42;;;16.20;48.70;;;;;;349588;28;1018;-55
2023/10/21 00:53:08;;;;;;;3.53;1.45;;;16.10;48.70;;;;;;349670;28;1011;-57
2023/10/21 00:53:19;;;;;;;4.00;1.50;;;16.20;48.70;;;;;;349643;28;1020;-58
2023/10/21 00:53:31;;;;;;;4.43;1.50;;;16.20;48.80;;;;;;349576;28;1097;-56
2023/10/21 00:53:42;;;;;;;5.38;1.70;;;16.20;48.80;;;;;;349556;28;1166;-56
2023/10/21 00:53:55;;;;;;;5.65;1.77;;;16.10;48.80;;;;;;349644;28;1827;-56
2023/10/21 00:54:07;;;;;;;5.68;1.63;;;16.20;48.80;;;;;;349622;28;1090;-55
2023/10/21 00:54:18;;;;;;;4.97;1.67;;;16.20;48.90;;;;;;349643;28;1051;-56
2023/10/21 00:54:29;;;;;;;4.05;1.67;;;16.20;49.10;;;;;;349519;28;1114;-56
2023/10/21 00:54:40;;;;;;;3.73;1.73;;;16.10;49.40;;;;;;349622;28;956;-56
2023/10/21 00:54:50;;;;;;;4.43;1.88;;;16.10;49.40;;;;;;349615;28;1157;-56
2023/10/21 00:55:02;;;;;;;4.80;1.80;;;16.10;49.50;;;;;;349629;28;1047;-55
2023/10/21 00:55:14;;;;;;;5.18;1.77;;;16.20;49.40;;;;;;349657;28;1086;-56
2023/10/21 00:55:25;;;;;;;4.97;1.63;;;16.10;49.40;;;;;;349604;28;915;-56
2023/10/21 00:55:35;;;;;;;5.65;1.70;;;16.20;49.50;;;;;;349686;28;951;-56
2023/10/21 00:55:46;;;;;;;4.40;1.55;;;16.20;49.50;;;;;;349661;28;849;-55
2023/10/21 00:55:59;;;;;;;3.83;1.60;;;16.10;49.40;;;;;;349595;28;1079;-56
2023/10/21 00:56:10;;;;;;;4.05;1.58;;;16.10;49.40;;;;;;349593;28;1126;-56
2023/10/21 00:56:21;;;;;;;4.15;1.52;;;16.10;49.60;;;;;;349449;28;1462;-55
2023/10/21 00:56:32;;;;;;;4.50;1.77;;;16.10;49.60;;;;;;349648;28;1027;-55
2023/10/21 00:56:42;;;;;;;5.37;2.10;;;16.10;49.40;;;;;;349575;28;1082;-55
2023/10/21 00:56:57;;;;;;;5.18;1.98;;;16.20;49.40;;;;;;349664;28;1027;-56
2023/10/21 00:57:09;;;;;;;5.75;1.80;;;16.20;49.30;;;;;;349638;28;1083;-54
2023/10/21 00:57:20;;;;;;;6.10;1.76;;;16.20;49.30;;;;;;349534;28;1075;-55
2023/10/21 00:57:31;;;;;;;6.45;1.83;;;16.20;49.30;;;;;;349634;28;939;-55
2023/10/21 00:57:42;;;;;;;6.50;1.85;;;16.20;49.40;;;;;;349636;28;1039;-55
2023/10/21 00:57:53;;;;;;;5.75;1.77;;;16.10;49.40;;;;;;349574;28;1354;-56
2023/10/21 00:58:05;;;;;;;4.72;1.65;;;16.20;49.40;;;;;;349585;28;987;-54
2023/10/21 00:58:15;;;;;;;4.97;1.75;;;16.20;49.40;;;;;;349542;28;1001;-55
2023/10/21 00:58:27;;;;;;;4.87;1.83;;;16.20;49.50;;;;;;349614;28;1075;-57
2023/10/21 00:58:40;;;;;;;5.15;1.83;;;16.20;49.70;;;;;;349644;28;1003;-56
2023/10/21 00:58:51;;;;;;;4.57;1.75;;;16.20;49.90;;;;;;349608;28;1110;-55
2023/10/21 00:59:01;;;;;;;4.90;1.85;;;16.10;49.90;;;;;;349645;28;971;-56
2023/10/21 00:59:13;;;;;;;4.68;1.65;;;16.10;49.70;;;;;;349598;28;1026;-55
2023/10/21 00:59:24;;;;;;;5.40;1.70;;;16.20;49.80;;;;;;349613;28;1035;-55
2023/10/21 00:59:35;;;;;;;5.27;1.80;;;16.10;49.70;;;;;;349693;28;1913;-55
2023/10/21 00:59:46;;;;;;;6.32;2.05;;;16.10;49.90;;;;;;349638;28;1159;-55
2023/10/21 00:59:57;;;;;;;5.90;1.85;;;16.20;50.00;;;;;;349633;28;1066;-55
2023/10/21 01:00:11;;;;;;;5.30;1.73;;;16.10;49.90;;;;;;349578;28;1108;-55
2023/10/21 01:00:22;;;;;;;4.18;1.60;;;16.20;49.90;;;;;;349579;28;1031;-56
2023/10/21 01:00:33;;;;;;;3.35;1.60;;;16.10;49.90;;;;;;349640;28;1078;-55